Time;durP1;ratioP1;P1;durP2;ratioP2;P2;SDS_P1;SDS_P2;PMS_P1;PMS_P2;Temp;Humidity;BMP_temperature;BMP_pressure;BME280_temperature;BME280_humidity;BME280_pressure;Samples;Min_cycle;Max_cycle;Signal;HPM_P1;HPM_P2
2022/11/28 00:00:28;;;;;;;84.62;39.33;;;;;;;3.45;100.00;99774.11;2239090;79;20980;-58
2022/11/28 00:03:30;;;;;;;82.67;36.98;;;;;;;3.32;100.00;99773.45;2211968;79;20977;-58
2022/11/28 00:06:30;;;;;;;81.65;37.33;;;;;;;3.27;100.00;99773.51;2234208;79;21007;-58
2022/11/28 00:09:31;;;;;;;81.95;37.08;;;;;;;3.20;100.00;99776.23;2242442;79;21479;-58
2022/11/28 00:12:31;;;;;;;75.78;35.28;;;;;;;3.23;100.00;99773.59;2240906;79;20980;-58
2022/11/28 00:15:32;;;;;;;78.22;36.13;;;;;;;3.21;100.00;99781.84;2233851;79;21061;-58
2022/11/28 00:18:32;;;;;;;77.32;36.55;;;;;;;3.19;100.00;99792.24;2275367;77;21004;-58
2022/11/28 00:21:33;;;;;;;73.80;34.45;;;;;;;3.28;100.00;99793.83;2233093;78;21019;-59
2022/11/28 00:24:33;;;;;;;74.77;35.98;;;;;;;3.31;100.00;99795.08;2217836;79;21020;-58
2022/11/28 00:27:34;;;;;;;78.80;37.48;;;;;;;3.36;100.00;99799.77;2227183;79;21502;-58
2022/11/28 00:30:35;;;;;;;75.80;35.63;;;;;;;3.27;100.00;99801.19;2222874;79;20989;-59
2022/11/28 00:33:35;;;;;;;75.97;36.08;;;;;;;3.28;100.00;99806.80;2241640;79;20965;-58
2022/11/28 00:36:36;;;;;;;71.37;34.83;;;;;;;3.25;100.00;99805.10;2229780;79;20976;-59
2022/11/28 00:39:36;;;;;;;75.45;34.40;;;;;;;3.28;100.00;99805.50;2231944;79;20980;-58
2022/11/28 00:42:36;;;;;;;79.65;37.78;;;;;;;3.35;100.00;99794.16;2237649;79;21118;-58
2022/11/28 00:45:37;;;;;;;77.08;36.93;;;;;;;3.46;100.00;99793.96;2229535;79;21464;-58
2022/11/28 00:48:37;;;;;;;72.97;34.95;;;;;;;3.61;100.00;99793.71;2232873;79;21062;-59
2022/11/28 00:51:38;;;;;;;75.87;34.95;;;;;;;3.59;100.00;99789.42;2238591;79;21168;-59
2022/11/28 00:54:38;;;;;;;76.12;36.63;;;;;;;3.59;100.00;99785.53;2223664;79;20984;-58
2022/11/28 00:57:39;;;;;;;78.97;37.35;;;;;;;3.56;100.00;99780.41;2281092;77;20970;-58
2022/11/28 01:00:39;;;;;;;77.05;34.90;;;;;;;3.44;100.00;99774.53;2271978;77;20953;-58
2022/11/28 01:03:40;;;;;;;78.95;36.10;;;;;;;3.42;100.00;99770.25;2272077;77;21476;-58
2022/11/28 01:06:40;;;;;;;76.02;35.52;;;;;;;3.40;100.00;99767.68;2282770;77;21005;-58
2022/11/28 01:09:40;;;;;;;75.17;35.15;;;;;;;3.26;100.00;99767.05;2285238;77;20988;-58
2022/11/28 01:12:41;;;;;;;80.57;38.75;;;;;;;3.35;100.00;99768.22;2269621;77;21058;-59
2022/11/28 01:15:42;;;;;;;75.62;36.03;;;;;;;3.32;100.00;99757.02;2275356;77;21044;-59
2022/11/28 01:18:42;;;;;;;85.22;39.78;;;;;;;3.33;100.00;99754.41;2285675;78;21057;-59
2022/11/28 01:21:43;;;;;;;74.05;34.90;;;;;;;3.27;100.00;99751.47;2282465;77;21507;-58
2022/11/28 01:24:43;;;;;;;76.15;35.58;;;;;;;3.30;100.00;99741.49;2286735;77;21536;-58
2022/11/28 01:27:44;;;;;;;71.70;34.60;;;;;;;3.32;100.00;99738.45;2250380;77;20980;-58
2022/11/28 01:30:44;;;;;;;77.03;35.92;;;;;;;3.36;100.00;99741.41;2267480;77;20988;-59
2022/11/28 01:33:44;;;;;;;74.05;34.58;;;;;;;3.14;100.00;99739.59;2285613;78;20973;-58
2022/11/28 01:36:45;;;;;;;69.50;33.70;;;;;;;3.09;100.00;99728.01;2270219;77;21038;-58
2022/11/28 01:39:45;;;;;;;73.60;34.40;;;;;;;3.07;100.00;99730.20;2286520;77;20973;-58
2022/11/28 01:42:46;;;;;;;77.27;34.80;;;;;;;3.06;100.00;99723.30;2283427;77;21499;-59
2022/11/28 01:45:46;;;;;;;79.45;34.90;;;;;;;3.11;100.00;99716.31;2274699;77;21049;-59
2022/11/28 01:48:46;;;;;;;77.32;36.17;;;;;;;3.09;100.00;99711.16;2275268;77;21023;-58
2022/11/28 01:51:47;;;;;;;70.72;32.80;;;;;;;2.95;100.00;99707.94;2253647;78;21000;-59
2022/11/28 01:54:47;;;;;;;74.05;33.20;;;;;;;2.97;100.00;99701.42;2281491;77;20961;-58
2022/11/28 01:57:48;;;;;;;74.80;33.55;;;;;;;2.91;100.00;99696.74;2269075;77;20981;-58
2022/11/28 02:00:48;;;;;;;71.35;31.52;;;;;;;2.92;100.00;99699.76;2272500;77;21518;-58
2022/11/28 02:03:49;;;;;;;68.78;32.20;;;;;;;3.00;100.00;99700.08;2275382;77;21541;-58
2022/11/28 02:06:49;;;;;;;72.53;34.18;;;;;;;3.00;100.00;99685.37;2281120;77;21319;-60
2022/11/28 02:09:49;;;;;;;76.30;33.38;;;;;;;2.97;100.00;99690.61;2269010;77;21028;-59
2022/11/28 02:12:50;;;;;;;77.22;34.63;;;;;;;3.03;100.00;99696.13;2279168;77;21031;-58
2022/11/28 02:15:50;;;;;;;74.32;34.10;;;;;;;2.97;100.00;99690.61;2286039;77;21001;-58
2022/11/28 02:18:51;;;;;;;75.70;33.85;;;;;;;2.98;100.00;99687.14;2260682;77;21080;-58
2022/11/28 02:21:52;;;;;;;69.35;30.75;;;;;;;2.94;100.00;99679.88;2274596;77;20971;-58
2022/11/28 02:24:52;;;;;;;70.97;31.35;;;;;;;2.98;100.00;99676.78;2276381;77;20976;-58
2022/11/28 02:27:52;;;;;;;66.12;28.80;;;;;;;2.91;100.00;99682.94;2276401;77;21034;-58
2022/11/28 02:30:53;;;;;;;67.03;31.17;;;;;;;2.91;100.00;99681.19;2281879;77;21048;-58
2022/11/28 02:33:53;;;;;;;68.45;29.98;;;;;;;3.00;100.00;99678.05;2277967;77;20996;-58
2022/11/28 02:36:54;;;;;;;69.20;31.70;;;;;;;3.03;100.00;99674.98;2246541;78;21546;-59
2022/11/28 02:39:55;;;;;;;70.20;32.55;;;;;;;3.18;100.00;99672.55;2267570;77;20985;-58
2022/11/28 02:42:55;;;;;;;69.20;30.05;;;;;;;3.08;100.00;99676.19;2284397;77;21005;-58
2022/11/28 02:45:56;;;;;;;64.85;29.00;;;;;;;2.92;100.00;99665.22;2280584;77;21076;-58
2022/11/28 02:48:56;;;;;;;68.52;30.20;;;;;;;2.95;100.00;99660.83;2281128;77;20985;-58
2022/11/28 02:51:58;;;;;;;65.55;29.48;;;;;;;2.96;100.00;99666.89;2270487;77;21095;-58
2022/11/28 02:54:58;;;;;;;68.73;31.23;;;;;;;2.93;100.00;99659.14;2282062;77;20992;-58
2022/11/28 02:57:58;;;;;;;59.40;28.90;;;;;;;2.93;100.00;99662.61;2283815;77;20999;-58
2022/11/28 03:00:59;;;;;;;60.98;28.73;;;;;;;2.88;100.00;99661.81;2265758;78;21000;-59
2022/11/28 03:03:59;;;;;;;66.02;28.98;;;;;;;2.97;100.00;99656.91;2264902;78;21005;-58
2022/11/28 03:07:00;;;;;;;69.20;30.05;;;;;;;3.01;100.00;99658.58;2283725;77;21810;-58
2022/11/28 03:10:00;;;;;;;64.30;28.05;;;;;;;3.04;100.00;99658.52;2277788;77;20992;-58
2022/11/28 03:13:01;;;;;;;64.85;28.17;;;;;;;3.00;100.00;99659.91;2285818;77;21012;-58
2022/11/28 03:16:01;;;;;;;59.48;27.55;;;;;;;2.96;100.00;99655.22;2285727;77;21084;-58
2022/11/28 03:19:03;;;;;;;62.65;28.35;;;;;;;3.02;100.00;99655.11;2287904;77;20997;-58
2022/11/28 03:22:04;;;;;;;58.00;26.10;;;;;;;3.02;100.00;99652.98;2259671;78;21463;-58
2022/11/28 03:25:04;;;;;;;60.70;27.20;;;;;;;3.05;100.00;99656.35;2281221;77;20981;-58
2022/11/28 03:28:05;;;;;;;58.00;26.90;;;;;;;3.13;100.00;99653.62;2286490;77;21064;-58
2022/11/28 03:31:05;;;;;;;65.42;27.98;;;;;;;3.14;100.00;99651.90;2283579;77;20973;-59
2022/11/28 03:34:06;;;;;;;64.87;28.45;;;;;;;3.07;100.00;99648.55;2280055;78;21001;-58
2022/11/28 03:37:06;;;;;;;65.03;28.70;;;;;;;3.07;100.00;99645.50;2287924;77;21686;-58
2022/11/28 03:40:06;;;;;;;58.78;26.05;;;;;;;3.07;100.00;99648.55;2282236;77;21019;-58
2022/11/28 03:43:07;;;;;;;61.95;27.67;;;;;;;3.04;100.00;99638.23;2279794;77;21025;-58
2022/11/28 03:46:07;;;;;;;59.65;27.67;;;;;;;3.04;100.00;99636.48;2281388;77;20973;-59
2022/11/28 03:49:08;;;;;;;59.35;26.57;;;;;;;3.11;100.00;99634.20;2247073;77;21016;-59
2022/11/28 03:52:10;;;;;;;55.67;25.20;;;;;;;3.04;100.00;99636.94;2266614;78;20997;-59
2022/11/28 03:55:10;;;;;;;63.68;27.65;;;;;;;3.02;100.00;99630.49;2263281;77;21056;-58
2022/11/28 03:58:11;;;;;;;56.05;24.23;;;;;;;3.04;100.00;99620.94;2238535;79;21062;-58
2022/11/28 04:01:12;;;;;;;58.33;24.60;;;;;;;3.00;100.00;99621.87;2229984;79;21104;-58
2022/11/28 04:04:12;;;;;;;56.50;26.27;;;;;;;3.00;100.00;99621.02;2236992;79;21495;-59
2022/11/28 04:07:13;;;;;;;62.10;27.30;;;;;;;3.01;100.00;99617.56;2235246;79;21487;-58
2022/11/28 04:10:13;;;;;;;63.50;27.48;;;;;;;3.04;100.00;99627.41;2226535;79;20957;-58
2022/11/28 04:13:13;;;;;;;64.12;27.85;;;;;;;3.12;100.00;99622.12;2236728;79;20972;-58
2022/11/28 04:16:14;;;;;;;65.85;27.77;;;;;;;3.07;100.00;99623.92;2225769;79;20940;-59
2022/11/28 04:19:14;;;;;;;62.90;27.20;;;;;;;3.03;100.00;99629.62;2223700;79;20944;-58
2022/11/28 04:22:15;;;;;;;63.70;27.60;;;;;;;3.05;100.00;99629.59;2289052;77;20996;-58
2022/11/28 04:25:16;;;;;;;62.90;26.07;;;;;;;3.00;100.00;99624.46;2288919;77;21614;-58
2022/11/28 04:28:16;;;;;;;63.08;26.60;;;;;;;3.12;100.00;99622.96;2226695;79;21005;-58
2022/11/28 04:31:17;;;;;;;56.40;26.33;;;;;;;3.06;100.00;99619.61;2241460;79;21019;-58
2022/11/28 04:34:17;;;;;;;59.65;26.23;;;;;;;3.06;100.00;99617.89;2239583;79;21016;-59
2022/11/28 04:37:18;;;;;;;57.15;25.27;;;;;;;3.15;100.00;99616.88;2234848;79;20961;-58
2022/11/28 04:40:18;;;;;;;64.50;26.82;;;;;;;3.05;100.00;99617.92;2237688;79;21031;-58
2022/11/28 04:43:19;;;;;;;58.63;25.40;;;;;;;3.07;100.00;99608.38;2225376;79;21043;-59
2022/11/28 04:46:19;;;;;;;59.80;25.57;;;;;;;3.04;100.00;99607.97;2234110;79;21545;-58
2022/11/28 04:49:19;;;;;;;62.60;26.82;;;;;;;3.07;100.00;99617.44;2232325;79;20972;-58
2022/11/28 04:52:20;;;;;;;56.77;25.35;;;;;;;3.07;100.00;99613.55;2232475;79;21027;-58
2022/11/28 04:55:21;;;;;;;56.25;25.77;;;;;;;2.91;100.00;99616.86;2229957;79;21032;-58
2022/11/28 04:58:21;;;;;;;58.13;24.85;;;;;;;2.98;100.00;99618.46;2229778;79;21039;-58
2022/11/28 05:01:22;;;;;;;56.77;24.32;;;;;;;2.95;100.00;99616.77;2236976;79;21531;-58
2022/11/28 05:04:23;;;;;;;60.05;26.40;;;;;;;3.06;100.00;99611.83;2231101;79;21535;-58
2022/11/28 05:07:23;;;;;;;60.08;26.35;;;;;;;2.99;100.00;99608.52;2235238;79;20979;-58
2022/11/28 05:10:24;;;;;;;65.37;26.95;;;;;;;3.02;100.00;99603.73;2231266;79;21070;-58
2022/11/28 05:13:24;;;;;;;60.50;27.52;;;;;;;3.05;100.00;99608.40;2227231;79;20964;-58
2022/11/28 05:16:25;;;;;;;61.15;26.60;;;;;;;3.04;100.00;99604.54;2228604;79;21000;-59
2022/11/28 05:19:26;;;;;;;61.30;26.50;;;;;;;3.00;100.00;99605.47;2243046;79;21484;-59
2022/11/28 05:22:26;;;;;;;62.85;27.45;;;;;;;2.92;100.00;99609.51;2243300;79;21060;-58
2022/11/28 05:25:26;;;;;;;60.23;26.35;;;;;;;2.87;100.00;99608.27;2234298;79;21061;-59
2022/11/28 05:28:27;;;;;;;57.73;24.65;;;;;;;2.86;100.00;99607.00;2238821;79;20973;-58
2022/11/28 05:31:28;;;;;;;58.48;25.27;;;;;;;2.93;100.00;99609.90;2234340;79;21035;-58
2022/11/28 05:34:29;;;;;;;58.87;26.02;;;;;;;2.99;100.00;99609.81;2240381;79;21468;-58
2022/11/28 05:37:30;;;;;;;61.35;26.23;;;;;;;3.02;100.00;99610.20;2238724;79;21004;-58
2022/11/28 05:40:30;;;;;;;59.67;25.25;;;;;;;3.01;100.00;99613.22;2222761;79;20976;-58
2022/11/28 05:43:31;;;;;;;57.95;24.52;;;;;;;2.98;100.00;99607.25;2218857;79;20980;-58
2022/11/28 05:46:31;;;;;;;58.92;24.37;;;;;;;2.92;100.00;99609.05;2229371;79;20996;-58
2022/11/28 05:49:32;;;;;;;60.45;24.27;;;;;;;2.95;100.00;99609.45;2230833;79;21577;-58
2022/11/28 05:52:32;;;;;;;52.62;23.12;;;;;;;2.93;100.00;99615.95;2233030;79;21060;-58
2022/11/28 05:55:33;;;;;;;55.50;23.70;;;;;;;2.91;100.00;99619.45;2231419;79;20997;-59
2022/11/28 05:58:33;;;;;;;49.00;22.02;;;;;;;2.99;100.00;99611.11;2245472;79;20973;-58
2022/11/28 06:01:34;;;;;;;57.33;24.05;;;;;;;3.00;100.00;99607.61;2230736;79;21029;-58
2022/11/28 06:04:34;;;;;;;57.73;24.52;;;;;;;3.05;100.00;99603.22;2238100;79;20972;-58
2022/11/28 06:07:35;;;;;;;51.53;22.98;;;;;;;3.00;100.00;99601.13;2241301;79;21092;-58
2022/11/28 06:10:35;;;;;;;52.58;22.48;;;;;;;2.89;100.00;99605.67;2224857;79;20972;-58
2022/11/28 06:13:36;;;;;;;51.23;21.55;;;;;;;2.94;100.00;99602.55;2236493;79;20983;-58
2022/11/28 06:16:36;;;;;;;49.95;20.43;;;;;;;2.84;100.00;99601.00;2238311;79;21571;-58
2022/11/28 06:19:37;;;;;;;48.98;21.02;;;;;;;2.87;100.00;99599.64;2227411;79;21114;-58
2022/11/28 06:22:37;;;;;;;47.40;19.98;;;;;;;2.94;100.00;99599.95;2240449;79;21054;-59
2022/11/28 06:25:37;;;;;;;47.80;21.33;;;;;;;3.04;100.00;99598.06;2237804;79;20965;-58
2022/11/28 06:28:38;;;;;;;51.42;22.85;;;;;;;3.06;100.00;99593.69;2235736;79;20972;-58
2022/11/28 06:31:39;;;;;;;49.25;20.90;;;;;;;3.03;100.00;99596.34;2243244;79;20988;-58
2022/11/28 06:34:40;;;;;;;50.70;21.17;;;;;;;2.98;100.00;99592.55;2231398;79;21042;-58
2022/11/28 06:37:40;;;;;;;45.63;20.68;;;;;;;2.98;100.00;99595.59;2241812;79;21069;-58
2022/11/28 06:40:40;;;;;;;48.13;20.62;;;;;;;2.98;100.00;99594.30;2227396;79;20953;-59
2022/11/28 06:43:41;;;;;;;47.03;21.02;;;;;;;3.05;100.00;99599.33;2244986;79;20993;-58
2022/11/28 06:46:42;;;;;;;47.33;20.02;;;;;;;3.16;100.00;99595.68;2240939;79;20952;-59
2022/11/28 06:49:42;;;;;;;49.45;21.93;;;;;;;3.17;100.00;99598.70;2236467;79;21440;-58
2022/11/28 07:08:39;;;;;;;46.53;21.00;;;;;;;3.32;100.00;99597.13;2355656;75;22131;-58
2022/11/28 07:11:39;;;;;;;47.20;20.48;;;;;;;3.25;100.00;99589.89;2362876;75;20957;-59
2022/11/28 07:14:39;;;;;;;57.38;23.40;;;;;;;3.37;100.00;99595.73;2363391;75;20960;-59
2022/11/28 07:17:40;;;;;;;56.23;24.02;;;;;;;3.17;100.00;99586.58;2363204;75;20952;-59
2022/11/28 07:20:40;;;;;;;55.03;23.32;;;;;;;3.17;100.00;99582.69;2363096;75;21012;-58
2022/11/28 07:23:41;;;;;;;49.45;22.05;;;;;;;3.17;100.00;99578.80;2362822;75;20995;-58
2022/11/28 07:26:42;;;;;;;54.70;22.75;;;;;;;3.15;100.00;99583.59;2362901;75;21423;-58
2022/11/28 07:29:42;;;;;;;53.55;21.23;;;;;;;3.16;100.00;99584.89;2362703;75;20945;-58
2022/11/28 07:46:20;;;;;;;46.40;21.00;;;;;;;3.54;100.00;99561.68;2286956;77;22526;-58
2022/11/28 07:49:20;;;;;;;50.17;22.13;;;;;;;3.50;100.00;99569.11;2250080;79;21045;-58
2022/11/28 07:52:21;;;;;;;52.45;22.48;;;;;;;3.44;100.00;99567.04;2250383;79;20980;-59
2022/11/28 07:55:22;;;;;;;47.15;22.05;;;;;;;3.30;100.00;99570.34;2250068;79;20972;-58
2022/11/28 07:58:22;;;;;;;48.02;21.30;;;;;;;3.30;100.00;99563.86;2250121;79;20989;-58
2022/11/28 08:01:23;;;;;;;48.05;20.82;;;;;;;3.20;100.00;99562.34;2249974;79;21017;-58
2022/11/28 08:04:23;;;;;;;46.48;20.32;;;;;;;3.04;100.00;99566.50;2249830;79;21495;-59
2022/11/28 08:07:24;;;;;;;47.85;21.35;;;;;;;3.04;100.00;99560.02;2250222;79;21009;-59
2022/11/28 08:10:24;;;;;;;44.77;20.30;;;;;;;3.06;100.00;99559.57;2250248;79;21000;-58
2022/11/28 08:13:25;;;;;;;46.88;20.48;;;;;;;3.12;100.00;99554.72;2250058;79;20993;-59
2022/11/28 08:16:25;;;;;;;46.48;20.95;;;;;;;3.16;100.00;99556.80;2250099;79;21012;-58
2022/11/28 08:19:26;;;;;;;48.73;20.57;;;;;;;3.09;100.00;99555.62;2249968;79;21506;-59
2022/11/28 08:22:26;;;;;;;47.35;19.20;;;;;;;3.03;100.00;99553.58;2249972;79;21040;-58
2022/11/28 08:25:26;;;;;;;44.90;19.25;;;;;;;3.02;100.00;99554.03;2250079;79;21000;-58
2022/11/28 08:28:27;;;;;;;43.28;18.73;;;;;;;3.01;100.00;99560.54;2250119;79;21012;-58
2022/11/28 08:31:27;;;;;;;42.40;17.17;;;;;;;3.02;100.00;99554.48;2250344;79;20996;-58
2022/11/28 08:34:28;;;;;;;42.73;17.73;;;;;;;3.15;100.00;99555.95;2250084;79;20961;-58
2022/11/28 08:37:28;;;;;;;40.48;17.35;;;;;;;3.10;100.00;99553.45;2250166;79;21028;-58
2022/11/28 08:40:29;;;;;;;39.60;16.40;;;;;;;2.98;100.00;99552.83;2250074;79;21068;-58
2022/11/28 08:43:29;;;;;;;47.38;18.65;;;;;;;3.04;100.00;99556.59;2249928;79;20953;-58
2022/11/28 08:46:31;;;;;;;40.67;16.82;;;;;;;2.98;100.00;99557.55;2256242;79;21483;-58
2022/11/28 08:49:32;;;;;;;40.92;16.82;;;;;;;3.01;100.00;99550.17;2256679;79;21024;-58
2022/11/28 08:52:33;;;;;;;37.85;15.90;;;;;;;3.02;100.00;99544.11;2256287;79;21037;-59
2022/11/28 08:55:33;;;;;;;39.00;16.25;;;;;;;3.04;100.00;99544.47;2256344;79;21512;-58
2022/11/28 08:58:34;;;;;;;38.70;16.75;;;;;;;3.09;100.00;99553.03;2256428;79;21512;-58
2022/11/28 09:01:34;;;;;;;36.80;15.00;;;;;;;3.17;100.00;99539.91;2256452;79;21044;-58
2022/11/28 09:04:35;;;;;;;36.95;15.78;;;;;;;3.16;100.00;99539.94;2256436;79;21048;-58
2022/11/28 09:07:37;;;;;;;42.15;16.17;;;;;;;3.29;100.00;99538.84;2229811;79;21040;-58
2022/11/28 09:10:37;;;;;;;38.70;15.30;;;;;;;3.28;100.00;99534.53;2256002;79;21008;-58
2022/11/28 09:13:38;;;;;;;37.53;14.53;;;;;;;3.37;100.00;99529.14;2255863;79;21059;-58
2022/11/28 09:16:38;;;;;;;37.55;15.20;;;;;;;3.41;100.00;99520.42;2256030;79;21537;-59
2022/11/28 09:19:39;;;;;;;35.33;14.55;;;;;;;3.43;100.00;99525.15;2256295;79;21560;-58
2022/11/28 09:22:41;;;;;;;35.05;15.00;;;;;;;3.42;100.00;99519.97;2256478;79;20964;-58
2022/11/28 09:25:42;;;;;;;38.85;15.90;;;;;;;3.42;100.00;99514.78;2256434;79;21028;-58
2022/11/28 09:28:42;;;;;;;35.48;14.40;;;;;;;3.41;100.00;99511.34;2256390;79;21510;-59
2022/11/28 09:31:43;;;;;;;35.08;14.55;;;;;;;3.57;100.00;99509.27;2256496;79;21024;-58
2022/11/28 09:34:43;;;;;;;37.85;14.40;;;;;;;3.69;100.00;99508.15;2256351;79;20983;-58
2022/11/28 09:37:44;;;;;;;35.23;13.35;;;;;;;3.78;100.00;99502.77;2256144;79;21007;-58
2022/11/28 09:40:44;;;;;;;34.03;14.15;;;;;;;3.79;100.00;99502.31;2256375;79;21028;-58
2022/11/28 09:43:44;;;;;;;35.52;14.63;;;;;;;3.78;100.00;99494.14;2256352;79;21016;-58
2022/11/28 09:46:45;;;;;;;36.55;13.85;;;;;;;3.78;100.00;99495.44;2255978;79;21063;-58
2022/11/28 09:49:46;;;;;;;36.68;14.25;;;;;;;3.74;100.00;99492.05;2256285;79;21031;-58
2022/11/28 09:52:47;;;;;;;33.50;12.47;;;;;;;3.65;100.00;99490.97;2256470;79;20960;-58
2022/11/28 09:55:47;;;;;;;35.60;13.38;;;;;;;3.73;100.00;99481.70;2256203;79;21046;-58
2022/11/28 09:58:48;;;;;;;30.97;12.37;;;;;;;3.77;100.00;99480.75;2256315;79;21019;-58
2022/11/28 10:01:48;;;;;;;37.73;14.55;;;;;;;3.92;100.00;99480.41;2256322;79;21514;-58
2022/11/28 10:04:49;;;;;;;37.13;15.83;;;;;;;4.05;100.00;99474.91;2255975;79;21000;-58
2022/11/28 10:07:49;;;;;;;34.35;14.50;;;;;;;4.08;100.00;99474.41;2256476;79;21000;-59
2022/11/28 10:10:51;;;;;;;31.23;13.03;;;;;;;4.20;100.00;99465.91;2256579;79;20987;-58
2022/11/28 10:13:52;;;;;;;35.98;13.75;;;;;;;4.26;100.00;99468.34;2256400;79;21116;-58
2022/11/28 10:16:52;;;;;;;35.17;14.38;;;;;;;4.31;100.00;99461.27;2256357;79;21064;-59
2022/11/28 10:19:53;;;;;;;33.70;14.03;;;;;;;4.28;100.00;99457.03;2256450;79;21007;-58
2022/11/28 10:22:53;;;;;;;32.73;13.18;;;;;;;4.26;100.00;99451.47;2256441;79;20956;-58
2022/11/28 10:25:54;;;;;;;29.90;11.75;;;;;;;4.27;100.00;99452.72;2256381;79;20925;-58
2022/11/28 10:28:54;;;;;;;33.55;12.93;;;;;;;4.42;100.00;99448.03;2256322;79;21001;-59
2022/11/28 10:31:55;;;;;;;31.95;13.00;;;;;;;4.49;100.00;99448.27;2256098;79;21483;-59
2022/11/28 10:34:55;;;;;;;32.83;12.55;;;;;;;4.63;100.00;99450.52;2256155;79;20956;-59
2022/11/28 10:37:56;;;;;;;33.55;13.30;;;;;;;4.62;100.00;99450.10;2256086;79;21008;-58
2022/11/28 10:40:58;;;;;;;37.90;14.47;;;;;;;4.63;100.00;99452.66;2256429;79;20952;-58
2022/11/28 10:43:58;;;;;;;35.80;14.10;;;;;;;4.69;100.00;99443.84;2256496;79;21071;-58
2022/11/28 10:46:59;;;;;;;38.78;14.63;;;;;;;4.66;100.00;99440.88;2255901;79;21727;-58
2022/11/28 10:49:59;;;;;;;35.95;12.53;;;;;;;4.63;100.00;99449.22;2256390;79;21028;-58
2022/11/28 10:53:00;;;;;;;36.77;13.75;;;;;;;4.57;100.00;99442.44;2256372;79;20956;-59
2022/11/28 10:56:01;;;;;;;33.13;12.80;;;;;;;4.51;100.00;99440.86;2256102;79;21072;-58
2022/11/28 10:59:01;;;;;;;34.63;12.60;;;;;;;4.57;100.00;99442.86;2256061;79;21050;-58
2022/11/28 11:02:01;;;;;;;33.00;13.25;;;;;;;4.51;100.00;99441.28;2256145;79;21470;-58
2022/11/28 11:05:02;;;;;;;36.73;14.00;;;;;;;4.56;100.00;99445.92;2256118;79;20949;-58
2022/11/28 11:08:02;;;;;;;34.23;13.48;;;;;;;4.55;100.00;99438.17;2256415;79;21063;-58
2022/11/28 11:11:03;;;;;;;33.53;12.95;;;;;;;4.58;100.00;99435.48;2256495;79;20964;-59
2022/11/28 11:14:03;;;;;;;37.33;14.20;;;;;;;4.60;100.00;99439.75;2256250;79;21003;-58
2022/11/28 11:17:04;;;;;;;34.90;14.10;;;;;;;4.63;100.00;99438.37;2255891;79;20953;-58
2022/11/28 11:20:04;;;;;;;33.98;13.83;;;;;;;4.64;100.00;99439.20;2256139;79;20937;-58
2022/11/28 11:23:05;;;;;;;33.75;14.23;;;;;;;4.66;100.00;99429.64;2256245;79;21439;-59
2022/11/28 11:26:08;;;;;;;36.70;14.20;;;;;;;4.52;100.00;99436.50;2256416;79;20981;-58
2022/11/28 11:29:07;;;;;;;36.17;14.63;;;;;;;4.49;100.00;99432.69;2229737;79;20995;-58
2022/11/28 11:32:08;;;;;;;34.13;13.20;;;;;;;4.47;100.00;99438.38;2256616;79;20930;-58
2022/11/28 11:35:08;;;;;;;32.73;13.88;;;;;;;4.57;100.00;99432.47;2256309;79;21036;-58
2022/11/28 11:38:08;;;;;;;33.98;13.38;;;;;;;4.64;100.00;99434.88;2256601;79;20937;-58
2022/11/28 11:41:09;;;;;;;32.35;13.40;;;;;;;4.74;100.00;99434.20;2256222;79;21004;-58
2022/11/28 11:44:09;;;;;;;31.30;12.50;;;;;;;4.67;100.00;99427.45;2256244;79;20983;-58
2022/11/28 11:47:10;;;;;;;34.53;13.45;;;;;;;4.72;100.00;99428.63;2249290;79;21479;-59
2022/11/28 11:50:11;;;;;;;34.95;12.82;;;;;;;4.73;100.00;99423.84;2249067;79;20991;-58
2022/11/28 11:53:11;;;;;;;33.02;12.98;;;;;;;4.71;100.00;99423.85;2249220;79;21059;-58
2022/11/28 11:56:12;;;;;;;34.33;13.58;;;;;;;4.76;100.00;99425.89;2249198;79;20961;-58
2022/11/28 11:59:12;;;;;;;33.58;13.25;;;;;;;4.75;100.00;99428.08;2249073;79;20960;-59
2022/11/28 12:02:13;;;;;;;32.13;12.55;;;;;;;4.75;100.00;99425.48;2249143;79;21550;-59
2022/11/28 12:05:13;;;;;;;31.05;12.05;;;;;;;4.83;100.00;99429.19;2248916;79;21463;-58
2022/11/28 12:08:14;;;;;;;31.48;12.35;;;;;;;4.79;100.00;99416.70;2249012;79;20956;-58
2022/11/28 12:11:14;;;;;;;32.48;13.00;;;;;;;4.73;100.00;99416.89;2249311;79;20995;-58
2022/11/28 12:14:15;;;;;;;32.50;12.88;;;;;;;4.77;100.00;99415.91;2249137;79;20980;-58
2022/11/28 12:17:15;;;;;;;34.25;13.93;;;;;;;4.89;100.00;99419.06;2249149;79;21079;-58
2022/11/28 12:20:15;;;;;;;32.38;11.75;;;;;;;4.85;100.00;99417.83;2249139;79;21028;-58
2022/11/28 12:23:16;;;;;;;32.63;12.58;;;;;;;4.78;100.00;99421.48;2249305;79;21470;-58
2022/11/28 12:26:16;;;;;;;32.15;12.05;;;;;;;4.72;100.00;99416.47;2249193;79;21028;-59
2022/11/28 12:29:17;;;;;;;40.92;14.98;;;;;;;4.65;100.00;99416.23;2249475;79;20995;-58
2022/11/28 12:32:18;;;;;;;29.95;11.55;;;;;;;4.58;100.00;99412.94;2249317;79;20957;-58
2022/11/28 12:35:18;;;;;;;31.33;10.93;;;;;;;4.68;100.00;99413.13;2249276;79;20968;-59
2022/11/28 12:38:19;;;;;;;32.88;12.13;;;;;;;4.67;100.00;99414.47;2249335;79;21486;-58
2022/11/28 12:41:19;;;;;;;31.62;11.85;;;;;;;4.58;100.00;99414.23;2249853;79;21470;-59
2022/11/28 12:44:20;;;;;;;29.00;11.18;;;;;;;4.56;100.00;99412.14;2248917;79;21009;-59
2022/11/28 12:47:20;;;;;;;33.30;12.23;;;;;;;4.55;100.00;99416.08;2248934;79;20989;-58
2022/11/28 12:50:21;;;;;;;33.38;12.13;;;;;;;4.56;100.00;99410.84;2249439;79;20969;-59
2022/11/28 12:53:21;;;;;;;31.87;12.50;;;;;;;4.59;100.00;99407.32;2249257;79;20937;-58
2022/11/28 12:56:22;;;;;;;30.52;12.13;;;;;;;4.61;100.00;99406.81;2249310;79;21495;-59
2022/11/28 12:59:24;;;;;;;31.65;12.45;;;;;;;4.66;100.00;99410.99;2249302;79;20933;-58
2022/11/28 13:02:25;;;;;;;31.87;11.83;;;;;;;4.59;100.00;99407.32;2249291;79;21037;-59
2022/11/28 13:05:26;;;;;;;32.35;11.85;;;;;;;4.52;100.00;99407.92;2249316;79;21096;-59
2022/11/28 13:08:26;;;;;;;33.05;11.95;;;;;;;4.53;100.00;99401.84;2249286;79;20941;-59
2022/11/28 13:11:27;;;;;;;33.25;11.68;;;;;;;4.56;100.00;99404.34;2249553;79;20969;-58
2022/11/28 13:14:27;;;;;;;30.80;11.55;;;;;;;4.46;100.00;99403.73;2248856;79;21035;-59
2022/11/28 13:17:28;;;;;;;31.70;11.88;;;;;;;4.54;100.00;99402.68;2248825;79;21020;-59
2022/11/28 13:20:29;;;;;;;31.33;12.45;;;;;;;4.51;100.00;99406.20;2249273;79;20984;-58
2022/11/28 13:23:29;;;;;;;34.53;13.13;;;;;;;4.58;100.00;99404.30;2249133;79;21001;-59
2022/11/28 13:26:30;;;;;;;31.20;12.33;;;;;;;4.32;100.00;99401.53;2249409;79;20976;-59
2022/11/28 13:29:30;;;;;;;31.87;13.20;;;;;;;4.35;100.00;99409.66;2249530;79;20956;-58
2022/11/28 13:32:31;;;;;;;33.80;12.68;;;;;;;4.28;100.00;99404.22;2249206;79;20996;-58
2022/11/28 13:35:32;;;;;;;32.75;12.78;;;;;;;4.31;100.00;99402.84;2248767;79;21060;-59
2022/11/28 13:38:32;;;;;;;31.97;12.45;;;;;;;4.30;100.00;99400.70;2249268;79;21497;-58
2022/11/28 13:41:32;;;;;;;35.00;13.10;;;;;;;4.34;100.00;99401.48;2249553;79;21000;-59
2022/11/28 13:44:33;;;;;;;33.33;13.40;;;;;;;4.26;100.00;99400.83;2249246;79;21091;-58
2022/11/28 13:47:34;;;;;;;32.48;12.88;;;;;;;4.21;100.00;99395.76;2249202;79;21004;-58
2022/11/28 13:50:34;;;;;;;34.23;13.08;;;;;;;4.18;100.00;99399.73;2249080;79;21127;-58
2022/11/28 13:53:35;;;;;;;33.55;13.20;;;;;;;4.04;100.00;99400.08;2249226;79;21566;-58
2022/11/28 13:56:36;;;;;;;31.97;13.13;;;;;;;3.99;100.00;99397.60;2249252;79;21574;-58
2022/11/28 13:59:36;;;;;;;35.52;13.08;;;;;;;4.01;100.00;99397.56;2249105;79;20961;-59
2022/11/28 14:02:37;;;;;;;32.38;12.68;;;;;;;3.94;100.00;99394.71;2249317;79;20952;-58
2022/11/28 14:05:37;;;;;;;34.63;14.28;;;;;;;4.03;100.00;99394.47;2249347;79;20977;-59
2022/11/28 14:08:38;;;;;;;36.28;14.40;;;;;;;4.02;100.00;99402.30;2249246;79;21052;-58
2022/11/28 14:11:38;;;;;;;34.15;13.58;;;;;;;4.04;100.00;99397.48;2248956;79;21024;-59
2022/11/28 14:14:39;;;;;;;36.20;14.58;;;;;;;4.15;100.00;99395.47;2249173;79;21518;-59
2022/11/28 14:17:40;;;;;;;38.17;16.50;;;;;;;4.20;100.00;99393.20;2249393;79;20999;-59